Time;durP1;ratioP1;P1;durP2;ratioP2;P2;SDS_P1;SDS_P2;PMS_P1;PMS_P2;Temp;Humidity;BMP_temperature;BMP_pressure;BME280_temperature;BME280_humidity;BME280_pressure;Samples;Min_cycle;Max_cycle;Signal;HPM_P1;HPM_P2
2023/09/21 00:01:07;;;;;;;4.17;2.47;;;17.60;1.00;;;;;;4995085;28;20545;-70
2023/09/21 00:03:34;;;;;;;5.17;2.70;;;17.70;1.00;;;;;;4997779;28;20431;-71
2023/09/21 00:06:01;;;;;;;5.63;2.83;;;17.70;1.00;;;;;;4981879;28;20416;-70
2023/09/21 00:08:49;;;;;;;2.40;2.20;;;17.70;1.00;;;;;;5015469;28;20417;-73
2023/09/21 00:11:17;;;;;;;2.77;2.50;;;17.70;1.00;;;;;;4998218;28;20787;-70
2023/09/21 00:13:44;;;;;;;3.83;2.33;;;17.70;1.00;;;;;;4998426;28;20931;-70
2023/09/21 00:16:12;;;;;;;2.20;2.03;;;17.70;1.00;;;;;;4997791;28;20959;-69
2023/09/21 00:18:42;;;;;;;3.27;2.83;;;17.70;1.00;;;;;;4998181;28;20784;-70
2023/09/21 00:21:12;;;;;;;4.23;2.30;;;17.70;1.00;;;;;;5015025;28;20423;-69
2023/09/21 00:23:38;;;;;;;2.37;2.17;;;17.70;1.00;;;;;;4997713;28;20497;-70
2023/09/21 00:26:07;;;;;;;2.90;2.20;;;17.70;1.00;;;;;;4996275;28;20419;-70
2023/09/21 00:28:33;;;;;;;3.00;2.70;;;17.70;1.00;;;;;;4997876;28;20430;-70
2023/09/21 00:31:02;;;;;;;4.90;2.40;;;17.70;1.00;;;;;;4996146;28;20808;-70
2023/09/21 00:33:33;;;;;;;3.80;2.67;;;17.70;1.00;;;;;;4982718;28;20156;-70
2023/09/21 00:36:03;;;;;;;3.40;3.10;;;17.70;1.00;;;;;;4998089;28;20383;-70
2023/09/21 00:38:31;;;;;;;2.80;2.60;;;17.70;1.00;;;;;;4982749;28;20392;-70
2023/09/21 00:41:04;;;;;;;2.37;2.20;;;17.70;1.00;;;;;;4997134;28;20485;-70
2023/09/21 00:43:30;;;;;;;3.03;2.70;;;17.70;1.00;;;;;;4969221;28;20472;-69
2023/09/21 00:46:03;;;;;;;3.40;2.13;;;17.70;1.00;;;;;;4985398;28;20427;-70
2023/09/21 00:48:36;;;;;;;2.60;2.40;;;17.70;1.00;;;;;;4998604;28;20458;-70
2023/09/21 00:51:07;;;;;;;4.50;2.87;;;17.70;1.00;;;;;;4997537;28;20455;-70
2023/09/21 00:53:36;;;;;;;2.50;2.30;;;17.70;1.00;;;;;;4981772;28;20388;-71
2023/09/21 00:56:09;;;;;;;2.90;2.33;;;17.60;1.00;;;;;;4997832;28;20395;-70
2023/09/21 00:58:37;;;;;;;3.43;2.30;;;17.60;1.00;;;;;;4996226;28;20419;-81
2023/09/21 01:01:05;;;;;;;2.37;2.17;;;17.60;1.00;;;;;;4995592;28;20439;-70
2023/09/21 01:03:32;;;;;;;2.87;2.53;;;17.50;1.00;;;;;;5014895;28;20467;-71
2023/09/21 01:06:02;;;;;;;5.60;2.77;;;17.50;1.00;;;;;;4995390;28;20873;-70
2023/09/21 01:08:30;;;;;;;4.90;2.97;;;17.50;1.00;;;;;;5014883;28;20411;-70
2023/09/21 01:10:57;;;;;;;2.93;2.63;;;17.50;1.00;;;;;;4996692;28;20415;-74
2023/09/21 01:13:25;;;;;;;2.60;2.40;;;17.40;1.00;;;;;;4979987;28;20400;-70
2023/09/21 01:16:03;;;;;;;5.53;2.43;;;17.50;1.00;;;;;;4983034;28;20526;-75
2023/09/21 01:18:31;;;;;;;3.53;2.70;;;17.40;1.00;;;;;;4964635;28;20492;-73
2023/09/21 01:21:04;;;;;;;6.20;2.50;;;17.40;1.00;;;;;;5013459;28;20427;-71
2023/09/21 01:23:42;;;;;;;4.63;2.90;;;17.40;1.00;;;;;;4982960;28;20522;-70
2023/09/21 01:26:12;;;;;;;2.37;2.17;;;17.40;1.00;;;;;;5014058;28;20383;-71
2023/09/21 01:28:54;;;;;;;5.10;2.57;;;17.40;1.00;;;;;;4996320;28;20526;-74
2023/09/21 01:31:20;;;;;;;4.23;2.30;;;17.40;1.00;;;;;;4978451;28;21113;-69
2023/09/21 01:33:47;;;;;;;2.50;2.30;;;17.30;1.00;;;;;;4996745;28;20472;-70
2023/09/21 01:36:15;;;;;;;4.13;2.57;;;17.30;1.00;;;;;;4980536;28;20439;-70
2023/09/21 01:38:46;;;;;;;4.70;2.50;;;17.30;1.00;;;;;;4980370;28;20399;-71
2023/09/21 01:41:29;;;;;;;4.17;3.03;;;17.30;1.00;;;;;;4976598;28;20463;-72
2023/09/21 01:43:55;;;;;;;7.80;2.53;;;17.30;1.00;;;;;;4992733;28;20944;-72
2023/09/21 01:46:22;;;;;;;3.70;2.70;;;17.30;1.00;;;;;;4996146;28;20426;-70
2023/09/21 01:48:50;;;;;;;2.53;2.33;;;17.20;1.00;;;;;;4980548;28;20192;-69
2023/09/21 01:51:18;;;;;;;2.27;2.17;;;17.20;1.00;;;;;;4980649;28;20439;-69
2023/09/21 01:53:44;;;;;;;9.67;2.90;;;17.20;1.00;;;;;;4963294;28;20419;-69
2023/09/21 01:56:10;;;;;;;2.80;2.60;;;17.20;1.00;;;;;;4963091;28;20479;-70
2023/09/21 01:58:36;;;;;;;2.30;2.10;;;17.20;1.00;;;;;;4994023;28;20441;-69
2023/09/21 02:01:03;;;;;;;3.23;2.77;;;17.10;1.00;;;;;;5012244;28;20451;-70
2023/09/21 02:03:31;;;;;;;2.77;2.53;;;17.10;1.00;;;;;;4980722;28;20177;-70
2023/09/21 02:06:02;;;;;;;2.43;2.23;;;17.10;1.00;;;;;;4996326;28;20922;-73
2023/09/21 02:08:31;;;;;;;2.73;2.33;;;17.10;1.00;;;;;;5013451;28;20384;-70
2023/09/21 02:10:59;;;;;;;5.00;2.60;;;17.10;1.00;;;;;;4995341;28;20459;-72
2023/09/21 02:13:25;;;;;;;3.70;2.77;;;17.10;1.00;;;;;;5011768;28;20482;-70
2023/09/21 02:15:53;;;;;;;3.13;2.83;;;17.10;1.00;;;;;;4993886;28;20439;-69
2023/09/21 02:18:20;;;;;;;2.47;2.20;;;17.10;1.00;;;;;;4996067;28;20183;-70
2023/09/21 02:20:51;;;;;;;2.50;2.30;;;17.10;1.00;;;;;;4994491;28;20431;-78
2023/09/21 02:23:17;;;;;;;2.63;2.43;;;17.00;1.00;;;;;;4996314;28;20776;-70
2023/09/21 02:25:45;;;;;;;3.23;2.90;;;17.00;1.00;;;;;;4980163;28;20411;-70
2023/09/21 02:28:12;;;;;;;3.00;2.80;;;17.00;1.00;;;;;;4995356;28;20673;-72
2023/09/21 02:30:40;;;;;;;3.40;2.40;;;16.90;1.00;;;;;;4993374;28;20451;-71
2023/09/21 02:33:08;;;;;;;3.93;2.53;;;16.90;1.00;;;;;;4979038;28;20450;-70
2023/09/21 02:35:41;;;;;;;2.60;2.40;;;16.90;1.00;;;;;;4979707;28;20419;-71
2023/09/21 02:38:12;;;;;;;3.80;2.70;;;16.90;1.00;;;;;;4981323;28;20863;-69
2023/09/21 02:40:40;;;;;;;2.67;2.47;;;16.90;1.00;;;;;;4995169;28;20438;-70
2023/09/21 02:43:09;;;;;;;4.63;2.63;;;16.90;1.00;;;;;;5012236;28;20804;-70
2023/09/21 02:45:36;;;;;;;6.40;4.30;;;16.90;1.00;;;;;;5011240;28;20431;-74
2023/09/21 02:48:03;;;;;;;2.87;2.57;;;16.90;1.00;;;;;;5012959;28;20419;-70
2023/09/21 02:50:32;;;;;;;2.37;2.17;;;16.90;1.00;;;;;;4978370;28;20415;-74
2023/09/21 02:53:06;;;;;;;3.10;2.80;;;16.90;1.00;;;;;;4980791;28;20768;-70
2023/09/21 02:55:33;;;;;;;2.63;2.43;;;16.90;1.00;;;;;;4999649;28;20442;-71
2023/09/21 02:58:09;;;;;;;2.20;2.03;;;16.80;1.00;;;;;;4997005;28;20521;-70
2023/09/21 03:00:49;;;;;;;2.67;2.47;;;16.80;1.00;;;;;;5000412;28;20475;-69
2023/09/21 03:03:22;;;;;;;2.30;2.20;;;16.90;1.00;;;;;;4984566;28;20478;-69
2023/09/21 03:05:51;;;;;;;3.13;2.80;;;16.80;1.00;;;;;;4983428;28;20419;-70
2023/09/21 03:08:21;;;;;;;3.13;2.77;;;16.90;1.00;;;;;;4983820;28;20415;-70
2023/09/21 03:10:52;;;;;;;2.60;2.40;;;16.90;1.00;;;;;;4998129;28;20968;-70
2023/09/21 03:13:19;;;;;;;6.50;2.57;;;16.80;1.00;;;;;;4997789;28;20438;-69
2023/09/21 03:15:53;;;;;;;2.70;2.50;;;16.80;1.00;;;;;;4995364;28;20770;-70
2023/09/21 03:18:20;;;;;;;3.93;2.70;;;16.80;1.00;;;;;;4979593;28;20427;-70
2023/09/21 03:20:48;;;;;;;4.33;3.00;;;16.80;1.00;;;;;;4995718;28;20920;-70
2023/09/21 03:23:15;;;;;;;2.60;2.40;;;16.80;1.00;;;;;;4966097;28;20431;-69
2023/09/21 03:25:53;;;;;;;2.57;2.37;;;16.80;1.00;;;;;;4998274;28;20435;-70
2023/09/21 03:28:24;;;;;;;3.30;2.37;;;16.70;1.00;;;;;;4984051;28;20398;-70
2023/09/21 03:30:56;;;;;;;3.70;2.93;;;16.70;1.00;;;;;;4994461;28;20858;-70
2023/09/21 03:33:24;;;;;;;3.60;3.30;;;16.70;1.00;;;;;;4980432;28;20812;-70
2023/09/21 03:35:51;;;;;;;2.80;2.60;;;16.70;1.00;;;;;;4979529;28;20495;-70
2023/09/21 03:38:19;;;;;;;3.80;3.17;;;16.70;1.00;;;;;;4979605;28;20483;-69
2023/09/21 03:40:45;;;;;;;4.83;3.33;;;16.60;1.00;;;;;;4991220;28;20513;-70
2023/09/21 03:43:12;;;;;;;3.10;2.60;;;16.60;1.00;;;;;;5014389;28;20465;-70
2023/09/21 03:45:40;;;;;;;7.23;2.70;;;16.60;1.00;;;;;;4997243;28;20485;-69
2023/09/21 03:48:08;;;;;;;2.70;2.50;;;16.60;1.00;;;;;;4965646;28;20431;-69
2023/09/21 03:50:36;;;;;;;3.07;2.80;;;16.60;1.00;;;;;;5015033;28;20399;-69
2023/09/21 03:53:04;;;;;;;2.63;2.43;;;16.60;1.00;;;;;;4999174;28;20419;-70
2023/09/21 03:55:32;;;;;;;3.77;3.00;;;16.60;1.00;;;;;;4978272;28;20479;-70
2023/09/21 03:57:59;;;;;;;2.97;2.60;;;16.60;1.00;;;;;;4978259;28;20468;-69
2023/09/21 04:00:36;;;;;;;3.60;2.17;;;16.60;1.00;;;;;;4980359;28;20435;-69
2023/09/21 04:03:12;;;;;;;4.63;3.00;;;16.50;1.00;;;;;;5001109;28;20403;-70
2023/09/21 04:05:40;;;;;;;3.70;2.37;;;16.50;1.00;;;;;;4982245;28;20733;-71
2023/09/21 04:08:08;;;;;;;3.57;3.27;;;16.50;1.00;;;;;;4981727;28;20454;-72
2023/09/21 04:10:35;;;;;;;4.43;3.70;;;16.50;1.00;;;;;;4997024;28;20443;-70
2023/09/21 04:13:03;;;;;;;6.47;3.57;;;16.50;1.00;;;;;;4997464;28;20427;-69
2023/09/21 04:15:31;;;;;;;5.77;3.40;;;16.50;1.00;;;;;;4981239;28;20439;-70
2023/09/21 04:17:59;;;;;;;5.20;3.80;;;16.50;1.00;;;;;;4998402;28;21017;-70
2023/09/21 04:20:25;;;;;;;4.80;4.40;;;16.50;1.00;;;;;;4996512;28;20439;-70
2023/09/21 04:22:53;;;;;;;4.50;4.20;;;16.50;1.00;;;;;;4997323;28;20423;-71
2023/09/21 04:25:19;;;;;;;6.40;4.17;;;16.50;1.00;;;;;;4986940;28;20436;-71
2023/09/21 04:27:48;;;;;;;5.07;4.07;;;16.50;1.00;;;;;;4978006;28;20428;-70
2023/09/21 04:30:18;;;;;;;4.50;4.20;;;16.50;1.00;;;;;;4978598;28;20895;-70
2023/09/21 04:32:46;;;;;;;5.87;4.53;;;16.50;1.00;;;;;;4997861;28;20517;-70
2023/09/21 04:35:18;;;;;;;8.93;4.00;;;16.50;1.00;;;;;;4981309;28;20427;-69
2023/09/21 04:37:51;;;;;;;7.00;3.93;;;16.50;1.00;;;;;;4995416;28;20470;-70
2023/09/21 04:40:18;;;;;;;3.90;3.60;;;16.50;1.00;;;;;;4996774;28;20447;-70
2023/09/21 04:42:47;;;;;;;5.70;3.80;;;16.50;1.00;;;;;;4997018;28;21134;-72
2023/09/21 04:45:16;;;;;;;5.13;4.60;;;16.50;1.00;;;;;;4996425;28;20411;-70
2023/09/21 04:47:49;;;;;;;3.50;3.20;;;16.40;1.00;;;;;;4997239;28;20510;-70
2023/09/21 04:50:19;;;;;;;4.73;3.03;;;16.50;1.00;;;;;;4981786;28;20493;-70
2023/09/21 04:52:48;;;;;;;3.23;3.00;;;16.50;1.00;;;;;;4997854;28;20427;-70
2023/09/21 04:55:16;;;;;;;3.57;2.90;;;16.50;1.00;;;;;;4997569;28;20423;-69
2023/09/21 04:57:47;;;;;;;2.37;2.10;;;16.40;1.00;;;;;;4981796;28;20470;-70
2023/09/21 05:00:15;;;;;;;3.40;3.10;;;16.50;1.00;;;;;;4995946;28;20398;-73
2023/09/21 05:02:42;;;;;;;3.03;2.83;;;16.50;1.00;;;;;;4996137;28;20486;-69
2023/09/21 05:05:08;;;;;;;3.10;2.80;;;16.50;1.00;;;;;;5013883;28;20938;-69
2023/09/21 05:07:35;;;;;;;4.40;2.40;;;16.50;1.00;;;;;;5014437;28;20423;-74
2023/09/21 05:10:06;;;;;;;5.20;2.87;;;16.60;1.00;;;;;;4995640;28;20426;-69
2023/09/21 05:12:33;;;;;;;4.20;2.80;;;16.50;1.00;;;;;;4997368;28;20501;-69
2023/09/21 05:15:00;;;;;;;3.47;2.70;;;16.60;1.00;;;;;;4979920;28;20447;-69
2023/09/21 05:17:26;;;;;;;3.57;3.20;;;16.60;1.00;;;;;;5013605;28;20664;-70
2023/09/21 05:19:53;;;;;;;2.50;2.40;;;16.60;1.00;;;;;;4995683;28;20523;-73
2023/09/21 05:22:20;;;;;;;3.67;2.90;;;16.60;1.00;;;;;;4979250;28;20970;-70
2023/09/21 05:24:47;;;;;;;3.60;2.70;;;16.60;1.00;;;;;;4961740;28;20428;-69
2023/09/21 05:27:17;;;;;;;2.90;2.70;;;16.70;1.00;;;;;;4959380;28;20801;-70
2023/09/21 05:29:44;;;;;;;3.30;3.00;;;16.70;1.00;;;;;;4993634;28;20416;-70
2023/09/21 05:32:11;;;;;;;3.77;3.10;;;16.70;1.00;;;;;;4975615;28;20455;-69
2023/09/21 05:34:37;;;;;;;3.37;2.40;;;16.80;1.00;;;;;;4977018;28;20491;-67
2023/09/21 05:37:02;;;;;;;3.03;2.17;;;16.90;1.00;;;;;;4994031;28;20551;-68
2023/09/21 05:39:28;;;;;;;3.63;2.70;;;16.80;1.00;;;;;;4993050;28;20169;-67
2023/09/21 05:41:54;;;;;;;4.93;3.20;;;16.90;1.00;;;;;;4988727;28;20290;-67
2023/09/21 05:44:25;;;;;;;3.83;2.97;;;16.90;1.00;;;;;;4996307;28;20659;-70
2023/09/21 05:46:53;;;;;;;3.10;2.87;;;17.00;1.00;;;;;;5012975;28;20188;-72
2023/09/21 05:49:22;;;;;;;3.83;3.00;;;17.00;1.00;;;;;;4978938;28;20478;-71
2023/09/21 05:51:53;;;;;;;8.10;3.07;;;17.00;1.00;;;;;;4980709;28;20528;-70
2023/09/21 05:54:28;;;;;;;2.87;2.67;;;17.00;1.00;;;;;;4979699;28;20425;-71
2023/09/21 05:56:57;;;;;;;3.30;3.00;;;17.10;1.00;;;;;;4992854;28;20498;-75
2023/09/21 05:59:24;;;;;;;4.70;2.90;;;17.10;1.00;;;;;;5013204;28;20407;-71
2023/09/21 06:01:50;;;;;;;4.53;2.27;;;17.10;1.00;;;;;;4978869;28;20548;-69
2023/09/21 06:04:21;;;;;;;3.00;2.40;;;17.10;1.00;;;;;;4971155;28;20956;-70
2023/09/21 06:06:48;;;;;;;3.03;2.73;;;17.20;1.00;;;;;;4993922;28;20502;-69
2023/09/21 06:09:18;;;;;;;4.50;2.47;;;17.20;1.00;;;;;;4976650;28;20401;-69
2023/09/21 06:11:49;;;;;;;3.47;2.93;;;17.30;1.00;;;;;;4999856;28;21037;-70
2023/09/21 06:14:19;;;;;;;4.97;2.73;;;17.40;1.00;;;;;;4995641;28;20908;-73
2023/09/21 06:16:45;;;;;;;5.30;2.30;;;17.40;1.00;;;;;;5011224;28;20827;-71
2023/09/21 06:19:17;;;;;;;3.00;2.57;;;17.50;1.00;;;;;;4994621;28;20435;-69
2023/09/21 06:21:45;;;;;;;2.93;2.73;;;17.50;1.00;;;;;;5011344;28;20947;-69
2023/09/21 06:24:12;;;;;;;3.03;2.50;;;17.60;1.00;;;;;;4996288;28;20407;-70
2023/09/21 06:26:38;;;;;;;5.47;3.67;;;17.60;1.00;;;;;;4959639;28;20863;-71
2023/09/21 06:29:05;;;;;;;2.40;2.20;;;17.70;1.00;;;;;;4963039;28;20832;-70
2023/09/21 06:31:32;;;;;;;5.50;2.60;;;17.70;1.00;;;;;;4990730;28;20462;-73
2023/09/21 06:33:59;;;;;;;5.80;2.70;;;17.80;1.00;;;;;;4967062;28;20459;-75
2023/09/21 06:36:30;;;;;;;3.23;2.30;;;17.80;1.00;;;;;;5015613;28;20485;-71
2023/09/21 06:39:00;;;;;;;2.90;2.70;;;17.80;1.00;;;;;;5000003;28;20423;-70
2023/09/21 06:41:28;;;;;;;3.83;2.60;;;17.90;1.00;;;;;;4997800;28;20491;-69
2023/09/21 06:44:06;;;;;;;3.10;2.80;;;17.90;1.00;;;;;;5001257;28;20506;-70
2023/09/21 06:46:32;;;;;;;5.90;2.33;;;17.90;1.00;;;;;;5015748;28;20959;-69
2023/09/21 06:49:01;;;;;;;3.20;2.87;;;17.90;1.00;;;;;;4982550;28;20513;-70
2023/09/21 06:51:28;;;;;;;3.20;2.60;;;18.00;1.00;;;;;;5016445;28;20477;-69
2023/09/21 06:53:57;;;;;;;4.43;3.03;;;17.90;1.00;;;;;;4998499;28;20415;-69
2023/09/21 06:56:24;;;;;;;2.57;2.37;;;17.90;1.00;;;;;;4983790;28;21018;-70
2023/09/21 06:58:51;;;;;;;9.10;2.80;;;17.90;1.00;;;;;;4966933;28;20784;-69
2023/09/21 07:01:17;;;;;;;3.17;2.50;;;17.90;1.00;;;;;;4995780;28;20795;-70
2023/09/21 07:03:43;;;;;;;5.07;2.50;;;17.90;1.00;;;;;;5016717;28;20494;-70
2023/09/21 07:06:11;;;;;;;2.70;2.37;;;18.00;1.00;;;;;;5016745;28;20176;-70
2023/09/21 07:08:38;;;;;;;3.70;2.70;;;18.00;1.00;;;;;;4983228;28;20439;-70
2023/09/21 07:11:05;;;;;;;4.80;2.57;;;18.10;1.00;;;;;;4982263;28;20431;-70
2023/09/21 07:13:35;;;;;;;3.70;3.00;;;18.20;1.00;;;;;;4997469;28;20426;-71
2023/09/21 07:16:03;;;;;;;6.80;2.80;;;18.30;1.00;;;;;;4999677;28;20438;-69
2023/09/21 07:18:30;;;;;;;2.53;2.33;;;18.40;1.00;;;;;;5016460;28;20406;-70
2023/09/21 07:20:57;;;;;;;3.00;2.50;;;18.50;1.00;;;;;;4965692;28;20962;-75
2023/09/21 07:23:23;;;;;;;3.07;2.40;;;18.60;1.00;;;;;;4999175;28;20403;-69
2023/09/21 07:25:53;;;;;;;3.00;2.27;;;18.70;1.00;;;;;;5016353;28;20756;-69
2023/09/21 07:28:21;;;;;;;4.77;2.87;;;18.60;1.00;;;;;;5015431;28;20477;-70
2023/09/21 07:30:52;;;;;;;2.43;2.23;;;18.70;1.00;;;;;;5015541;28;20517;-71
2023/09/21 07:33:23;;;;;;;3.17;2.60;;;18.70;1.00;;;;;;5015521;28;20418;-69
2023/09/21 07:35:50;;;;;;;2.10;1.93;;;18.70;1.00;;;;;;4982615;28;20839;-69
2023/09/21 07:38:18;;;;;;;2.40;2.20;;;18.80;1.00;;;;;;4982450;28;20458;-71
2023/09/21 07:40:47;;;;;;;4.40;2.57;;;18.90;1.00;;;;;;5015566;28;20450;-71
2023/09/21 07:43:13;;;;;;;4.30;2.17;;;18.90;1.00;;;;;;5015943;28;20435;-69
2023/09/21 07:45:39;;;;;;;3.40;2.40;;;19.00;1.00;;;;;;4982311;28;20415;-70
2023/09/21 07:48:06;;;;;;;3.10;2.77;;;19.10;1.00;;;;;;5015953;28;20442;-70
2023/09/21 07:50:36;;;;;;;5.00;2.40;;;19.20;1.00;;;;;;5014927;28;20545;-68
2023/09/21 07:53:04;;;;;;;2.77;2.40;;;19.30;1.00;;;;;;4997458;28;20435;-70
2023/09/21 07:55:31;;;;;;;2.50;2.30;;;19.40;1.00;;;;;;4982957;28;20411;-69
2023/09/21 07:57:57;;;;;;;3.07;2.70;;;19.50;1.00;;;;;;4982374;28;20463;-69
2023/09/21 08:00:25;;;;;;;5.80;2.97;;;19.50;1.00;;;;;;4997531;28;20823;-69
2023/09/21 08:02:53;;;;;;;2.37;1.80;;;19.60;1.00;;;;;;4998096;28;20415;-70
2023/09/21 08:05:20;;;;;;;2.67;2.23;;;19.80;1.00;;;;;;4998204;28;20407;-70
2023/09/21 08:07:49;;;;;;;2.53;2.33;;;19.90;1.00;;;;;;4982529;28;20411;-69
2023/09/21 08:10:17;;;;;;;2.80;2.20;;;20.00;1.00;;;;;;4997844;28;20415;-72
2023/09/21 08:12:45;;;;;;;3.10;2.37;;;20.20;1.00;;;;;;4997147;28;20966;-69
2023/09/21 08:15:11;;;;;;;2.50;2.00;;;20.30;1.00;;;;;;5015299;28;20437;-70
2023/09/21 08:17:38;;;;;;;3.00;2.70;;;20.30;1.00;;;;;;4981982;28;20459;-69
2023/09/21 08:20:09;;;;;;;4.43;2.70;;;20.40;1.00;;;;;;4994833;28;20443;-69
2023/09/21 08:22:37;;;;;;;6.57;2.20;;;20.60;1.00;;;;;;4982683;28;20513;-69
2023/09/21 08:25:05;;;;;;;3.30;2.20;;;20.70;1.00;;;;;;4965651;28;20427;-70
2023/09/21 08:27:33;;;;;;;3.33;2.20;;;20.80;1.00;;;;;;5014812;28;20411;-71
2023/09/21 08:30:03;;;;;;;3.57;2.90;;;20.90;1.00;;;;;;5014309;28;20525;-69
2023/09/21 08:32:31;;;;;;;5.23;2.20;;;21.00;1.00;;;;;;4997691;28;20435;-70
2023/09/21 08:34:57;;;;;;;3.40;2.63;;;21.20;1.00;;;;;;4996769;28;20843;-70
2023/09/21 08:37:23;;;;;;;2.60;2.37;;;21.20;1.00;;;;;;4965085;28;20474;-70
2023/09/21 08:39:50;;;;;;;5.17;2.10;;;21.20;1.00;;;;;;4995814;28;20474;-69
2023/09/21 08:42:17;;;;;;;4.40;2.33;;;21.20;1.00;;;;;;4981257;28;20923;-70
2023/09/21 08:44:46;;;;;;;3.27;2.73;;;21.30;1.00;;;;;;4981161;28;20415;-73
2023/09/21 08:47:14;;;;;;;3.00;1.90;;;21.40;1.00;;;;;;4997368;28;20411;-69
2023/09/21 08:49:47;;;;;;;2.97;2.40;;;21.50;1.00;;;;;;4964266;28;20443;-69
2023/09/21 08:52:14;;;;;;;7.83;2.80;;;21.70;1.00;;;;;;4997028;28;20435;-70
2023/09/21 08:54:46;;;;;;;2.80;2.47;;;21.90;1.00;;;;;;4981260;28;20419;-70
2023/09/21 08:57:13;;;;;;;2.90;2.23;;;22.00;1.00;;;;;;4997688;28;20471;-69
2023/09/21 08:59:44;;;;;;;2.80;2.60;;;22.20;1.00;;;;;;4980611;28;20815;-70
2023/09/21 09:02:12;;;;;;;2.40;2.20;;;22.40;1.00;;;;;;4964920;28;20493;-69
2023/09/21 09:04:43;;;;;;;5.27;2.10;;;22.60;1.00;;;;;;4980392;28;20425;-69
2023/09/21 09:07:13;;;;;;;5.60;3.37;;;22.70;1.00;;;;;;4997401;28;20787;-70
2023/09/21 09:09:39;;;;;;;2.30;2.03;;;22.90;1.00;;;;;;4963906;28;20430;-69
2023/09/21 09:12:24;;;;;;;5.43;2.10;;;23.10;1.00;;;;;;4980650;28;20471;-69
2023/09/21 09:14:54;;;;;;;3.50;2.43;;;23.40;1.00;;;;;;5014317;28;20925;-74
2023/09/21 09:17:21;;;;;;;3.00;2.03;;;23.70;1.00;;;;;;5014284;28;20454;-69
2023/09/21 09:19:47;;;;;;;2.80;2.30;;;23.90;1.00;;;;;;4995712;28;20425;-69
2023/09/21 09:22:15;;;;;;;3.10;2.20;;;24.00;1.00;;;;;;4996467;28;20450;-70
2023/09/21 09:24:51;;;;;;;5.37;2.87;;;24.00;1.00;;;;;;4980756;28;20415;-69
2023/09/21 09:27:19;;;;;;;3.43;2.40;;;24.00;1.00;;;;;;4980827;28;20429;-69
2023/09/21 09:29:50;;;;;;;3.27;1.93;;;24.20;1.00;;;;;;5012476;28;20419;-69
2023/09/21 09:32:18;;;;;;;3.60;3.07;;;24.60;1.00;;;;;;4980422;28;20439;-71
2023/09/21 09:34:47;;;;;;;3.03;2.20;;;25.00;1.00;;;;;;4980834;28;20579;-68
2023/09/21 09:37:17;;;;;;;2.73;2.10;;;25.40;1.00;;;;;;4965131;28;20832;-67
2023/09/21 09:39:47;;;;;;;2.40;1.80;;;25.60;1.00;;;;;;4979608;28;20747;-71
2023/09/21 09:42:15;;;;;;;3.60;2.00;;;25.80;1.00;;;;;;4980229;28;20427;-69
2023/09/21 09:44:58;;;;;;;2.47;2.03;;;25.60;1.00;;;;;;4980340;28;20419;-69
2023/09/21 09:47:26;;;;;;;2.33;2.00;;;25.20;99.90;;;;;;4980983;28;20414;-69
2023/09/21 09:49:54;;;;;;;3.33;2.30;;;24.80;99.90;;;;;;4979226;28;20525;-69
2023/09/21 09:52:23;;;;;;;3.67;2.27;;;24.40;99.90;;;;;;4996059;28;20960;-69
2023/09/21 09:54:52;;;;;;;3.03;2.13;;;24.00;99.90;;;;;;5013687;28;20420;-68
2023/09/21 09:57:22;;;;;;;5.50;2.63;;;23.80;99.90;;;;;;4996100;28;20459;-69
2023/09/21 09:59:50;;;;;;;2.80;2.47;;;23.70;99.90;;;;;;4995248;28;20415;-70
2023/09/21 10:02:18;;;;;;;2.57;2.30;;;24.00;99.90;;;;;;5013157;28;20430;-69
2023/09/21 10:04:46;;;;;;;5.63;2.33;;;24.20;99.90;;;;;;4979991;28;20407;-68
2023/09/21 10:07:16;;;;;;;2.93;2.27;;;24.20;99.90;;;;;;4979697;28;20454;-68
2023/09/21 10:09:45;;;;;;;5.50;2.20;;;24.20;99.90;;;;;;5012485;28;20426;-72
2023/09/21 10:12:14;;;;;;;2.63;2.20;;;24.20;99.90;;;;;;4979970;28;20454;-70
2023/09/21 10:14:44;;;;;;;5.03;1.77;;;24.30;99.90;;;;;;4996096;28;20464;-69
2023/09/21 10:17:10;;;;;;;4.23;2.37;;;24.20;99.90;;;;;;4980068;28;20555;-69
2023/09/21 10:19:39;;;;;;;2.47;2.27;;;24.30;99.90;;;;;;5012068;28;20410;-69
2023/09/21 10:22:22;;;;;;;4.20;2.93;;;24.30;99.90;;;;;;5013038;28;20509;-70
2023/09/21 10:24:53;;;;;;;5.47;2.30;;;24.40;99.90;;;;;;4963655;28;21026;-68
2023/09/21 10:27:25;;;;;;;1.93;1.83;;;24.50;99.90;;;;;;4980479;28;20423;-68
2023/09/21 10:30:07;;;;;;;3.80;2.07;;;24.70;99.90;;;;;;5012383;28;21245;-69
2023/09/21 10:32:50;;;;;;;2.80;2.03;;;24.90;99.90;;;;;;4979916;28;20918;-72
2023/09/21 10:35:42;;;;;;;6.80;2.30;;;25.00;99.90;;;;;;4995341;28;20851;-72
2023/09/21 10:38:16;;;;;;;2.23;1.77;;;25.10;99.90;;;;;;5012997;28;20517;-68
2023/09/21 10:40:43;;;;;;;1.70;1.50;;;25.40;99.90;;;;;;4992457;28;20936;-68
2023/09/21 10:43:37;;;;;;;3.33;2.43;;;25.60;99.90;;;;;;4979720;28;20422;-67
2023/09/21 10:46:16;;;;;;;2.50;2.30;;;26.00;99.90;;;;;;4995469;28;20508;-68
2023/09/21 10:49:14;;;;;;;4.90;1.67;;;26.70;99.90;;;;;;5012856;28;20434;-67
2023/09/21 10:51:40;;;;;;;2.27;2.07;;;27.00;99.90;;;;;;5010661;28;20801;-67
2023/09/21 10:54:10;;;;;;;3.07;1.67;;;27.10;99.90;;;;;;4995529;28;20457;-73
2023/09/21 10:56:37;;;;;;;5.50;1.80;;;27.00;99.90;;;;;;4979616;28;20462;-66
2023/09/21 10:59:07;;;;;;;3.30;2.07;;;26.90;99.90;;;;;;5012683;28;20745;-67
2023/09/21 11:01:33;;;;;;;2.60;1.77;;;26.80;99.90;;;;;;4994444;28;20584;-69
2023/09/21 11:04:02;;;;;;;2.93;2.07;;;26.70;99.90;;;;;;5012880;28;20407;-67
2023/09/21 11:06:31;;;;;;;3.20;2.10;;;26.70;99.90;;;;;;4995750;28;20633;-67
2023/09/21 11:08:59;;;;;;;2.60;1.80;;;26.80;99.90;;;;;;4963366;28;20419;-67
2023/09/21 11:11:25;;;;;;;2.53;1.87;;;26.80;99.90;;;;;;4994522;28;20474;-66
2023/09/21 11:13:52;;;;;;;3.73;2.30;;;26.70;99.90;;;;;;4979321;28;20419;-67
2023/09/21 11:16:21;;;;;;;6.13;2.33;;;26.60;99.90;;;;;;5016458;28;20411;-71
2023/09/21 11:18:52;;;;;;;3.40;2.20;;;26.50;99.90;;;;;;5016273;28;20729;-67
2023/09/21 11:21:21;;;;;;;3.07;1.60;;;26.40;99.90;;;;;;5015663;28;20434;-68
2023/09/21 11:23:49;;;;;;;1.60;1.50;;;26.30;99.90;;;;;;5016378;28;20395;-68
2023/09/21 11:26:15;;;;;;;2.47;2.07;;;26.20;99.90;;;;;;4998500;28;20415;-67
2023/09/21 11:28:58;;;;;;;1.90;1.77;;;26.30;99.90;;;;;;4984376;28;20411;-71
2023/09/21 11:31:24;;;;;;;2.20;2.00;;;26.30;99.90;;;;;;4981321;28;20456;-68
2023/09/21 11:33:51;;;;;;;3.07;2.30;;;26.30;99.90;;;;;;5016202;28;20879;-67
2023/09/21 11:36:16;;;;;;;2.20;2.00;;;26.20;99.90;;;;;;5016264;28;20219;-66
2023/09/21 11:38:42;;;;;;;1.93;1.73;;;26.20;99.90;;;;;;4998469;28;20949;-66
2023/09/21 11:41:09;;;;;;;2.17;1.97;;;26.30;99.90;;;;;;4981374;28;20246;-67
2023/09/21 11:43:35;;;;;;;2.40;1.60;;;26.50;99.90;;;;;;4998830;28;20180;-69
2023/09/21 11:46:06;;;;;;;1.77;1.67;;;26.70;99.90;;;;;;5015623;28;20415;-69
2023/09/21 11:48:33;;;;;;;8.90;2.40;;;26.90;99.90;;;;;;5015057;28;20208;-68
2023/09/21 11:50:59;;;;;;;2.30;1.80;;;27.10;99.90;;;;;;4997340;28;20461;-70
2023/09/21 11:53:27;;;;;;;4.33;1.70;;;27.40;99.90;;;;;;4998532;28;20407;-69
2023/09/21 11:55:54;;;;;;;4.27;2.23;;;27.60;99.90;;;;;;4998459;28;20441;-71
2023/09/21 11:58:20;;;;;;;2.30;2.10;;;28.00;99.90;;;;;;4998038;28;20463;-68
2023/09/21 12:00:51;;;;;;;3.10;2.00;;;28.10;99.90;;;;;;5014757;28;20422;-68
2023/09/21 12:03:23;;;;;;;3.17;2.00;;;28.10;99.90;;;;;;5014841;28;20185;-70
2023/09/21 12:05:49;;;;;;;3.33;2.30;;;27.90;99.90;;;;;;4981206;28;20477;-68
2023/09/21 12:08:16;;;;;;;2.80;2.07;;;27.90;99.90;;;;;;5015342;28;20764;-67
2023/09/21 12:10:47;;;;;;;3.03;2.00;;;27.90;99.90;;;;;;4997276;28;20788;-71
2023/09/21 12:13:16;;;;;;;2.93;1.60;;;28.10;99.90;;;;;;5015374;28;20908;-68
2023/09/21 12:15:42;;;;;;;3.83;2.00;;;28.20;99.90;;;;;;4998275;28;20416;-67
2023/09/21 12:18:12;;;;;;;2.77;2.37;;;28.30;99.90;;;;;;5015328;28;21034;-66
2023/09/21 12:20:42;;;;;;;3.27;2.13;;;28.30;99.90;;;;;;5014373;28;20172;-66
2023/09/21 12:23:09;;;;;;;3.87;2.70;;;28.40;99.90;;;;;;5015098;28;20392;-68
2023/09/21 12:25:35;;;;;;;3.03;1.80;;;28.70;99.90;;;;;;5013523;28;20404;-66
2023/09/21 12:28:01;;;;;;;3.30;2.07;;;28.90;99.90;;;;;;5015194;28;20499;-67
2023/09/21 12:30:26;;;;;;;3.20;2.30;;;29.40;99.90;;;;;;4996598;28;20175;-67
2023/09/21 12:32:52;;;;;;;3.57;1.70;;;29.80;99.90;;;;;;5015214;28;20231;-67
2023/09/21 12:35:21;;;;;;;2.63;2.30;;;29.90;99.90;;;;;;5015006;28;20168;-68
2023/09/21 12:37:50;;;;;;;4.53;2.20;;;29.40;99.90;;;;;;5014865;28;20653;-69
2023/09/21 12:40:17;;;;;;;2.27;1.73;;;29.60;99.90;;;;;;4997256;28;20414;-70
2023/09/21 12:42:45;;;;;;;2.17;1.83;;;30.00;99.90;;;;;;5014101;28;20938;-68
2023/09/21 12:45:15;;;;;;;2.00;1.80;;;30.70;99.90;;;;;;5014815;28;20911;-68
2023/09/21 12:47:41;;;;;;;3.63;1.70;;;31.70;99.90;;;;;;5014836;28;20407;-71
2023/09/21 12:50:13;;;;;;;2.10;1.90;;;32.50;99.90;;;;;;4996530;28;20407;-71
2023/09/21 12:52:41;;;;;;;3.73;2.03;;;33.10;99.90;;;;;;5014678;28;20510;-70
2023/09/21 12:55:10;;;;;;;2.50;1.93;;;32.90;99.90;;;;;;4996580;28;20415;-69
2023/09/21 12:57:39;;;;;;;1.70;1.60;;;32.40;99.90;;;;;;4981096;28;21020;-70
2023/09/21 13:00:18;;;;;;;3.87;2.00;;;31.90;99.90;;;;;;4996176;28;20466;-68
2023/09/21 13:02:45;;;;;;;2.77;1.97;;;31.40;99.90;;;;;;5012474;28;20407;-70
2023/09/21 13:05:12;;;;;;;10.30;1.67;;;31.20;99.90;;;;;;4997086;28;20404;-70